createdAt,value
2023-05-01T00:00:05.595Z,100084.56
2023-05-01T00:02:32.542Z,100254.84
2023-05-01T00:04:59.386Z,100297.75
2023-05-01T00:07:29.365Z,100253.50
2023-05-01T00:09:56.238Z,100261.28
2023-05-01T00:12:23.535Z,100248.53
2023-05-01T00:14:50.636Z,100285.91
2023-05-01T00:17:17.509Z,100207.56
2023-05-01T00:19:44.214Z,100250.41
2023-05-01T00:22:10.860Z,100273.28
2023-05-01T00:24:37.535Z,100284.72
2023-05-01T00:27:04.408Z,100282.94
2023-05-01T00:29:31.113Z,100135.88
2023-05-01T00:31:57.873Z,100190.59
2023-05-01T00:34:25.208Z,100287.44
2023-05-01T00:36:52.436Z,100238.34
2023-05-01T00:39:19.577Z,100271.75
2023-05-01T00:41:46.193Z,100132.56
2023-05-01T00:44:13.020Z,100282.81
2023-05-01T00:46:39.754Z,100278.41
2023-05-01T00:49:06.646Z,100264.44
2023-05-01T00:51:33.785Z,100194.38
2023-05-01T00:54:01.586Z,100259.44
2023-05-01T00:56:29.042Z,100114.81
2023-05-01T00:58:56.873Z,100168.75
2023-05-01T01:01:24.280Z,100137.34
2023-05-01T01:03:54.772Z,99979.44
2023-05-01T01:06:33.754Z,100260.84
2023-05-01T01:09:09.044Z,100253.06
2023-05-01T01:11:52.099Z,100249.97
2023-05-01T01:14:27.390Z,100216.38
2023-05-01T01:16:59.442Z,100248.13
2023-05-01T01:19:41.421Z,100222.44
2023-05-01T01:22:13.580Z,100167.97
2023-05-01T01:24:59.157Z,100242.88
2023-05-01T01:27:35.129Z,100237.84
2023-05-01T01:30:04.813Z,100234.06
2023-05-01T01:33:09.345Z,100228.97
2023-05-01T01:35:39.032Z,100156.69
2023-05-01T01:38:20.760Z,100203.88
2023-05-01T01:40:58.795Z,100193.78
2023-05-01T01:43:27.098Z,100228.31
2023-05-01T01:46:03.733Z,100231.94
2023-05-01T01:48:34.782Z,100215.41
2023-05-01T01:51:06.575Z,100219.09
2023-05-01T01:53:36.583Z,100206.00
2023-05-01T01:56:08.596Z,100165.66
2023-05-01T01:58:36.916Z,100126.38
2023-05-01T02:01:06.367Z,100140.53
2023-05-01T02:03:33.973Z,100216.75
2023-05-01T02:06:01.883Z,100112.81
2023-05-01T02:08:31.749Z,100155.94
2023-05-01T02:11:01.965Z,100201.09
2023-05-01T02:13:31.251Z,100121.97
2023-05-01T02:16:03.269Z,100075.19
2023-05-01T02:18:31.753Z,100158.47
2023-05-01T02:21:01.115Z,100173.34
2023-05-01T02:23:29.804Z,100142.81
2023-05-01T02:25:58.712Z,100188.44
2023-05-01T02:28:28.385Z,100189.88
2023-05-01T02:30:55.110Z,100184.13
2023-05-01T02:33:21.730Z,100177.47
2023-05-01T02:35:48.476Z,100110.94
2023-05-01T02:38:18.329Z,100069.84
2023-05-01T02:40:50.591Z,100072.66
2023-05-01T02:43:20.969Z,100173.28
2023-05-01T02:45:49.340Z,100147.41
2023-05-01T02:48:21.881Z,100143.91
2023-05-01T02:50:50.085Z,100165.31
2023-05-01T02:53:18.810Z,100161.41
2023-05-01T02:55:50.615Z,100051.00
2023-05-01T02:58:19.052Z,99987.97
2023-05-01T03:00:48.592Z,100119.38
2023-05-01T03:03:16.573Z,100138.22
2023-05-01T03:05:43.333Z,100147.75
2023-05-01T03:08:10.590Z,100123.38
2023-05-01T03:10:40.798Z,100139.59
2023-05-01T03:13:08.429Z,99957.69
2023-05-01T03:15:35.075Z,100136.88
2023-05-01T03:18:01.889Z,100110.41
2023-05-01T03:20:29.798Z,100131.81
2023-05-01T03:22:57.728Z,99977.41
2023-05-01T03:25:25.946Z,100079.81
2023-05-01T03:27:55.105Z,100128.16
2023-05-01T03:30:22.702Z,100051.72
2023-05-01T03:32:51.731Z,99802.75
2023-05-01T03:35:23.899Z,100040.25
2023-05-01T03:37:50.906Z,100127.19
2023-05-01T03:40:37.488Z,100058.78
2023-05-01T03:43:23.898Z,100096.34
2023-05-01T03:45:52.563Z,100124.75
2023-05-01T03:48:20.346Z,100106.09
2023-05-01T03:50:47.106Z,100014.75
2023-05-01T03:53:14.920Z,99958.38
2023-05-01T03:55:41.903Z,100072.78
2023-05-01T03:58:08.989Z,99971.22
2023-05-01T04:00:35.718Z,100077.78
2023-05-01T04:03:03.296Z,100076.19
2023-05-01T04:05:32.103Z,100096.03
2023-05-01T04:08:02.151Z,100109.19
2023-05-01T04:10:28.924Z,100022.25
2023-05-01T04:13:00.358Z,100001.16
2023-05-01T04:15:27.712Z,100006.75
2023-05-01T04:17:56.743Z,100116.19
2023-05-01T04:20:23.898Z,99799.84
2023-05-01T04:22:50.740Z,100009.59
2023-05-01T04:25:17.812Z,100109.09
2023-05-01T04:27:46.072Z,100081.44
2023-05-01T04:30:14.632Z,100107.59
2023-05-01T04:32:41.515Z,99932.50
2023-05-01T04:35:09.615Z,100089.63
2023-05-01T04:37:37.380Z,100089.41
2023-05-01T04:40:04.565Z,100023.88
2023-05-01T04:42:34.212Z,100013.75
2023-05-01T04:45:04.030Z,100095.81
2023-05-01T04:47:34.296Z,100101.00
2023-05-01T04:50:01.265Z,100083.78
2023-05-01T04:52:28.100Z,100083.38
2023-05-01T04:54:59.132Z,100048.47
2023-05-01T04:57:28.510Z,100081.06
2023-05-01T04:59:55.600Z,100080.53
2023-05-01T05:02:23.308Z,99935.06
2023-05-01T05:04:50.496Z,100077.84
2023-05-01T05:07:17.266Z,100070.50
2023-05-01T05:10:07.882Z,100044.34
2023-05-01T05:12:38.390Z,100003.41
2023-05-01T05:15:06.114Z,100041.47
2023-05-01T05:17:32.911Z,100068.22
2023-05-01T05:19:59.792Z,100100.66
2023-05-01T05:22:26.556Z,100041.78
2023-05-01T05:25:13.192Z,100077.28
2023-05-01T05:27:39.822Z,99944.34
2023-05-01T05:30:07.311Z,99937.66
2023-05-01T05:32:35.246Z,100058.00
2023-05-01T05:35:02.592Z,100069.09
2023-05-01T05:37:29.554Z,100020.66
2023-05-01T05:39:57.064Z,100051.28
2023-05-01T05:42:24.347Z,100047.97
2023-05-01T05:44:51.222Z,100051.56
2023-05-01T05:47:18.013Z,99932.25
2023-05-01T05:49:44.682Z,100041.13
2023-05-01T05:52:11.490Z,100000.88
2023-05-01T05:54:38.970Z,99946.78
2023-05-01T05:57:05.609Z,99976.22
2023-05-01T05:59:33.172Z,100027.28
2023-05-01T06:02:00.337Z,99979.03
2023-05-01T06:04:27.071Z,99948.19
2023-05-01T06:06:54.790Z,99934.97
2023-05-01T06:09:21.835Z,99847.72
2023-05-01T06:11:48.967Z,99968.56
2023-05-01T06:14:17.023Z,99967.38
2023-05-01T06:16:44.274Z,99971.34
2023-05-01T06:19:12.213Z,100008.25
2023-05-01T06:21:39.868Z,100004.13
2023-05-01T06:24:06.836Z,99846.84
2023-05-01T06:26:41.874Z,100002.03
2023-05-01T06:29:08.617Z,99824.91
2023-05-01T06:31:35.452Z,100000.13
2023-05-01T06:34:02.325Z,99991.81
2023-05-01T06:36:36.142Z,99982.78
2023-05-01T06:39:02.857Z,99955.91
2023-05-01T06:41:32.558Z,99966.00
2023-05-01T06:43:59.492Z,99977.63
2023-05-01T06:46:26.274Z,99921.38
2023-05-01T06:48:53.047Z,99880.06
2023-05-01T06:51:19.725Z,99839.91
2023-05-01T06:53:46.385Z,99910.94
2023-05-01T06:56:13.076Z,99961.16
2023-05-01T06:58:39.940Z,99936.50
2023-05-01T07:01:07.144Z,99910.88
2023-05-01T07:03:33.965Z,99840.19
2023-05-01T07:06:00.809Z,99956.00
2023-05-01T07:08:28.310Z,99959.31
2023-05-01T07:10:55.051Z,99953.19
2023-05-01T07:13:21.765Z,99954.16
2023-05-01T07:15:49.129Z,99940.16
2023-05-01T07:18:17.129Z,99949.53
2023-05-01T07:20:43.860Z,99908.56
2023-05-01T07:23:10.624Z,99925.94
2023-05-01T07:25:37.778Z,99792.81
2023-05-01T07:28:08.268Z,99947.53
2023-05-01T07:30:36.400Z,99939.38
2023-05-01T07:33:03.461Z,99946.59
2023-05-01T07:35:30.395Z,99936.72
2023-05-01T07:37:57.089Z,99929.91
2023-05-01T07:40:23.760Z,99936.25
2023-05-01T07:42:53.133Z,99926.19
2023-05-01T07:45:21.060Z,99857.53
2023-05-01T07:47:48.063Z,99911.97
2023-05-01T07:50:14.824Z,99913.72
2023-05-01T07:52:41.437Z,99915.59
2023-05-01T07:55:08.892Z,99910.91
2023-05-01T07:57:36.279Z,99872.06
2023-05-01T08:00:03.366Z,99899.28
2023-05-01T08:02:43.073Z,99916.13
2023-05-01T08:05:10.343Z,99761.59
2023-05-01T08:07:37.261Z,99829.81
2023-05-01T08:10:04.593Z,99899.19
2023-05-01T08:12:31.804Z,99862.03
2023-05-01T08:14:58.800Z,99706.28
2023-05-01T08:17:25.808Z,99695.13
2023-05-01T08:19:56.831Z,99767.75
2023-05-01T08:22:24.133Z,99874.63
2023-05-01T08:24:51.474Z,99832.91
2023-05-01T08:27:20.369Z,99876.72
2023-05-01T08:29:47.996Z,99878.88
2023-05-01T08:32:15.786Z,99802.09
2023-05-01T08:34:42.416Z,99864.31
2023-05-01T08:37:09.271Z,99526.91
2023-05-01T08:39:36.282Z,99592.44
2023-05-01T08:42:06.784Z,99579.41
2023-05-01T08:44:38.048Z,99660.75
2023-05-01T08:47:27.790Z,99755.22
2023-05-01T08:49:55.796Z,99708.66
2023-05-01T08:52:23.843Z,99842.81
2023-05-01T08:54:52.511Z,99833.00
2023-05-01T08:57:20.727Z,99845.97
2023-05-01T08:59:48.538Z,99826.97
2023-05-01T09:02:16.078Z,99824.53
2023-05-01T09:04:43.616Z,99678.94
2023-05-01T09:07:10.512Z,99783.28
2023-05-01T09:09:37.478Z,99408.69
2023-05-01T09:12:24.640Z,99747.47
2023-05-01T09:14:54.225Z,99822.16
2023-05-01T09:17:22.505Z,99763.91
2023-05-01T09:19:51.017Z,99815.75
2023-05-01T09:22:19.123Z,99717.00
2023-05-01T09:24:46.761Z,99642.41
2023-05-01T09:27:14.754Z,99751.19
2023-05-01T09:29:47.507Z,99788.59
2023-05-01T09:32:19.411Z,99740.34
2023-05-01T09:34:47.651Z,99783.41
2023-05-01T09:37:29.362Z,99729.09
2023-05-01T09:40:05.442Z,99772.75
2023-05-01T09:42:35.012Z,99602.47
2023-05-01T09:45:04.826Z,99771.91
2023-05-01T09:47:34.153Z,99529.88
2023-05-01T09:50:04.665Z,99770.31
2023-05-01T09:52:33.971Z,99770.88
2023-05-01T09:55:18.168Z,99679.16
2023-05-01T09:57:46.752Z,99500.09
2023-05-01T10:00:15.641Z,99801.94
2023-05-01T10:02:46.172Z,99701.31
2023-05-01T10:05:16.470Z,99770.06
2023-05-01T10:08:03.848Z,99760.06
2023-05-01T10:10:31.072Z,99752.56
2023-05-01T10:13:15.585Z,99589.88
2023-05-01T10:15:42.564Z,99485.78
2023-05-01T10:18:12.090Z,99674.59
2023-05-01T10:20:40.619Z,99662.50
2023-05-01T10:23:07.969Z,99699.31
2023-05-01T10:25:36.892Z,99694.31
2023-05-01T10:28:04.751Z,99581.13
2023-05-01T10:30:32.474Z,99561.88
2023-05-01T10:33:00.072Z,99690.72
2023-05-01T10:35:34.181Z,99708.25
2023-05-01T10:38:03.034Z,99462.56
2023-05-01T10:40:39.202Z,99713.94
2023-05-01T10:43:30.876Z,99721.66
2023-05-01T10:46:09.999Z,99719.34
2023-05-01T10:48:39.899Z,99718.16
2023-05-01T10:51:28.336Z,99680.13
2023-05-01T10:54:13.956Z,99707.44
2023-05-01T10:56:42.913Z,99697.66
2023-05-01T10:59:10.578Z,99538.09
2023-05-01T11:01:39.767Z,99690.44
2023-05-01T11:04:27.937Z,99684.66
2023-05-01T11:06:57.671Z,99688.41
2023-05-01T11:09:54.477Z,99691.97
2023-05-01T11:12:46.863Z,99691.41
2023-05-01T11:15:29.558Z,99693.56
2023-05-01T11:17:59.790Z,99581.78
2023-05-01T11:20:26.500Z,99677.03
2023-05-01T11:22:54.706Z,99665.06
2023-05-01T11:25:27.237Z,99673.97
2023-05-01T11:27:57.081Z,99516.06
2023-05-01T11:30:24.420Z,99608.69
2023-05-01T11:32:52.377Z,99629.09
2023-05-01T11:35:21.079Z,99666.91
2023-05-01T11:37:48.532Z,99624.50
2023-05-01T11:40:41.322Z,99666.31
2023-05-01T11:43:09.376Z,99641.84
2023-05-01T11:45:37.836Z,99622.16
2023-05-01T11:48:14.131Z,99449.13
2023-05-01T11:50:40.868Z,99654.91
2023-05-01T11:53:12.976Z,99605.81
2023-05-01T11:55:40.459Z,99649.31
2023-05-01T11:58:07.507Z,99652.97
2023-05-01T12:00:37.487Z,99650.31
2023-05-01T12:03:07.055Z,99644.19
2023-05-01T12:05:37.442Z,99462.72
2023-05-01T12:08:15.980Z,99558.06
2023-05-01T12:10:44.341Z,99633.59
2023-05-01T12:13:13.644Z,99536.34
2023-05-01T12:15:50.113Z,99621.03
2023-05-01T12:18:18.692Z,99478.69
2023-05-01T12:20:48.738Z,99447.50
2023-05-01T12:23:19.073Z,99448.00
2023-05-01T12:25:46.746Z,99557.88
2023-05-01T12:28:14.680Z,99616.16
2023-05-01T12:30:42.723Z,99401.44
2023-05-01T12:33:12.107Z,99666.88
2023-05-01T12:35:40.402Z,99618.38
2023-05-01T12:38:12.855Z,99609.78
2023-05-01T12:40:41.147Z,99602.41
2023-05-01T12:43:07.988Z,99553.97
2023-05-01T12:45:43.599Z,99601.75
2023-05-01T12:48:14.101Z,99607.06
2023-05-01T12:50:41.636Z,99447.97
2023-05-01T12:53:09.951Z,99606.25
2023-05-01T12:55:51.949Z,99418.13
2023-05-01T12:58:19.020Z,99532.78
2023-05-01T13:00:48.736Z,99603.75
2023-05-01T13:03:18.264Z,99582.06
2023-05-01T13:06:02.615Z,99601.22
2023-05-01T13:08:34.973Z,99589.97
2023-05-01T13:11:13.672Z,99577.44
2023-05-01T13:13:41.402Z,99592.59
2023-05-01T13:16:12.289Z,99597.78
2023-05-01T13:18:58.073Z,99504.66
2023-05-01T13:21:25.368Z,99503.44
2023-05-01T13:23:59.825Z,99413.72
2023-05-01T13:26:33.542Z,99578.50
2023-05-01T13:29:02.041Z,99504.16
2023-05-01T13:31:29.799Z,99537.13
2023-05-01T13:33:59.690Z,99517.75
2023-05-01T13:36:32.880Z,99578.63
2023-05-01T13:38:59.830Z,99316.66
2023-05-01T13:41:27.525Z,99536.25
2023-05-01T13:43:56.626Z,99565.50
2023-05-01T13:46:25.681Z,99490.28
2023-05-01T13:48:52.889Z,99577.53
2023-05-01T13:51:22.928Z,99536.81
2023-05-01T13:53:50.274Z,99576.38
2023-05-01T13:56:16.947Z,99502.03
2023-05-01T13:58:43.743Z,99428.06
2023-05-01T14:01:21.499Z,99572.09
2023-05-01T14:03:49.459Z,99497.81
2023-05-01T14:06:18.790Z,99516.41
2023-05-01T14:08:47.028Z,99579.94
2023-05-01T14:11:14.786Z,99600.88
2023-05-01T14:13:44.159Z,99556.81
2023-05-01T14:16:19.975Z,99533.69
2023-05-01T14:18:48.328Z,99391.47
2023-05-01T14:21:20.959Z,99528.88
2023-05-01T14:23:47.778Z,99551.38
2023-05-01T14:26:18.894Z,99557.63
2023-05-01T14:28:48.202Z,99573.44
2023-05-01T14:31:29.478Z,99541.34
2023-05-01T14:34:06.297Z,99475.63
2023-05-01T14:36:33.198Z,99541.78
2023-05-01T14:39:01.909Z,99575.72
2023-05-01T14:41:30.053Z,99571.06
2023-05-01T14:43:57.107Z,99574.47
2023-05-01T14:46:30.941Z,99271.53
2023-05-01T14:48:59.968Z,99369.78
2023-05-01T14:51:27.820Z,99451.06
2023-05-01T14:53:54.829Z,99564.63
2023-05-01T14:56:21.766Z,99464.75
2023-05-01T14:58:51.734Z,99389.25
2023-05-01T15:01:19.485Z,99418.16
2023-05-01T15:03:46.523Z,99432.78
2023-05-01T15:06:13.450Z,99567.59
2023-05-01T15:08:40.315Z,99511.19
2023-05-01T15:11:07.599Z,99452.88
2023-05-01T15:13:34.770Z,99531.22
2023-05-01T15:16:01.563Z,99461.13
2023-05-01T15:18:28.285Z,99403.03
2023-05-01T15:20:55.539Z,99566.44
2023-05-01T15:23:22.306Z,99497.00
2023-05-01T15:25:50.639Z,99393.09
2023-05-01T15:28:17.419Z,99675.84
2023-05-01T15:30:46.733Z,99569.84
2023-05-01T15:33:17.142Z,99523.22
2023-05-01T15:35:45.744Z,99535.03
2023-05-01T15:38:12.642Z,99535.28
2023-05-01T15:40:39.256Z,99575.28
2023-05-01T15:43:06.521Z,99572.84
2023-05-01T15:45:33.677Z,99496.25
2023-05-01T15:48:01.355Z,99447.31
2023-05-01T15:50:28.290Z,99577.88
2023-05-01T15:52:55.345Z,99540.78
2023-05-01T15:55:22.408Z,99469.13
2023-05-01T15:57:49.392Z,99526.53
2023-05-01T16:00:21.813Z,99518.34
2023-05-01T16:02:48.598Z,99403.03
2023-05-01T16:05:18.937Z,99526.94
2023-05-01T16:07:46.241Z,99367.81
2023-05-01T16:10:12.953Z,99494.59
2023-05-01T16:12:40.106Z,99619.81
2023-05-01T16:15:07.360Z,99417.16
2023-05-01T16:17:45.049Z,99467.63
2023-05-01T16:20:13.326Z,99476.59
2023-05-01T16:22:41.638Z,99549.66
2023-05-01T16:25:10.518Z,99566.53
2023-05-01T16:27:42.472Z,99559.91
2023-05-01T16:30:10.012Z,99567.69
2023-05-01T16:32:37.931Z,99567.28
2023-05-01T16:35:05.780Z,99427.91
2023-05-01T16:37:34.182Z,99469.94
2023-05-01T16:40:01.889Z,99421.19
2023-05-01T16:42:28.996Z,99494.59
2023-05-01T16:44:57.164Z,99521.13
2023-05-01T16:47:24.022Z,99509.84
2023-05-01T16:49:52.365Z,99429.03
2023-05-01T16:52:19.262Z,99474.34
2023-05-01T16:54:46.068Z,99565.09
2023-05-01T16:57:13.097Z,99514.53
2023-05-01T16:59:39.776Z,99570.59
2023-05-01T17:02:07.003Z,99437.19
2023-05-01T17:04:34.109Z,99330.44
2023-05-01T17:07:01.004Z,99434.22
2023-05-01T17:09:27.732Z,99576.38
2023-05-01T17:11:56.683Z,99594.78
2023-05-01T17:14:26.118Z,99583.06
2023-05-01T17:16:53.264Z,99326.69
2023-05-01T17:19:20.098Z,99349.06
2023-05-01T17:21:47.796Z,99386.34
2023-05-01T17:24:14.756Z,99588.78
2023-05-01T17:26:42.619Z,99467.81
2023-05-01T17:29:10.346Z,99530.94
2023-05-01T17:31:37.119Z,99491.53
2023-05-01T17:34:04.329Z,99611.13
2023-05-01T17:36:32.388Z,99547.91
2023-05-01T17:39:01.364Z,99563.06
2023-05-01T17:41:28.110Z,99548.34
2023-05-01T17:43:55.450Z,99534.22
2023-05-01T17:46:22.204Z,99418.19
2023-05-01T17:48:51.306Z,99564.03
2023-05-01T17:51:18.571Z,99667.91
2023-05-01T17:53:46.530Z,99491.53
2023-05-01T17:56:13.495Z,99617.22
2023-05-01T17:58:40.988Z,99609.91
2023-05-01T18:01:07.850Z,99611.44
2023-05-01T18:03:47.236Z,99665.75
2023-05-01T18:06:14.078Z,99466.13
2023-05-01T18:08:41.430Z,99618.00
2023-05-01T18:11:08.309Z,99596.47
2023-05-01T18:13:41.268Z,99650.09
2023-05-01T18:16:08.618Z,99613.34
2023-05-01T18:18:35.657Z,99590.22
2023-05-01T18:21:02.365Z,99525.47
2023-05-01T18:23:29.170Z,99574.44
2023-05-01T18:25:56.251Z,99529.38
2023-05-01T18:28:23.104Z,99376.38
2023-05-01T18:30:50.573Z,99528.09
2023-05-01T18:33:18.047Z,99517.06
2023-05-01T18:35:44.785Z,99622.28
2023-05-01T18:38:11.706Z,99528.25
2023-05-01T18:40:38.475Z,99618.50
2023-05-01T18:43:06.724Z,99501.25
2023-05-01T18:45:34.867Z,99631.03
2023-05-01T18:48:03.195Z,99467.94
2023-05-01T18:50:30.287Z,99492.03
2023-05-01T18:52:57.080Z,99610.25
2023-05-01T18:55:25.188Z,99544.66
2023-05-01T18:57:52.207Z,99597.66
2023-05-01T19:00:32.283Z,99516.22
2023-05-01T19:02:59.318Z,99637.75
2023-05-01T19:05:27.623Z,99560.75
2023-05-01T19:07:58.996Z,99623.88
2023-05-01T19:10:28.638Z,99669.72
2023-05-01T19:12:55.392Z,99644.22
2023-05-01T19:15:28.241Z,99555.28
2023-05-01T19:17:58.318Z,99567.75
2023-05-01T19:20:25.334Z,99573.09
2023-05-01T19:22:52.174Z,99601.81
2023-05-01T19:25:19.252Z,99453.56
2023-05-01T19:27:46.734Z,99608.09
2023-05-01T19:30:13.425Z,99655.97
2023-05-01T19:32:40.453Z,99648.56
2023-05-01T19:35:10.073Z,99588.38
2023-05-01T19:37:37.159Z,99631.31
2023-05-01T19:40:04.552Z,99525.84
2023-05-01T19:42:31.585Z,99671.59
2023-05-01T19:44:58.537Z,99663.69
2023-05-01T19:47:26.327Z,99284.88
2023-05-01T19:49:53.071Z,99718.75
2023-05-01T19:52:19.720Z,99692.97
2023-05-01T19:54:47.672Z,99535.72
2023-05-01T19:57:14.424Z,99641.34
2023-05-01T20:02:27.927Z,99531.94
2023-05-01T20:04:54.947Z,99696.78
2023-05-01T20:07:21.879Z,99555.34
2023-05-01T20:09:48.850Z,99651.56
2023-05-01T20:12:15.915Z,99545.38
2023-05-01T20:14:42.675Z,99530.09
2023-05-01T20:17:09.648Z,99396.19
2023-05-01T20:19:39.614Z,99543.09
2023-05-01T20:22:07.028Z,99662.66
2023-05-01T20:24:34.607Z,99722.75
2023-05-01T20:27:03.928Z,99555.28
2023-05-01T20:29:30.623Z,99633.94
2023-05-01T20:31:58.998Z,99475.13
2023-05-01T20:34:25.941Z,99693.59
2023-05-01T20:36:52.664Z,99475.78
2023-05-01T20:39:19.454Z,99723.41
2023-05-01T20:41:46.184Z,99594.88
2023-05-01T20:44:16.819Z,99557.75
2023-05-01T20:46:44.857Z,99504.59
2023-05-01T20:49:15.053Z,99723.19
2023-05-01T20:51:42.700Z,99622.66
2023-05-01T20:54:09.416Z,99533.69
2023-05-01T20:56:36.230Z,99558.38
2023-05-01T20:59:03.895Z,99633.72
2023-05-01T21:01:33.861Z,99685.34
2023-05-01T21:04:01.011Z,99599.44
2023-05-01T21:06:31.642Z,99672.75
2023-05-01T21:09:01.507Z,99609.03
2023-05-01T21:11:28.392Z,99721.41
2023-05-01T21:13:57.757Z,99684.50
2023-05-01T21:16:24.973Z,99727.41
2023-05-01T21:18:51.592Z,99745.19
2023-05-01T21:21:18.707Z,99786.81
2023-05-01T21:23:51.284Z,99785.16
2023-05-01T21:26:19.711Z,99718.09
2023-05-01T21:28:46.596Z,99564.47
2023-05-01T21:31:13.729Z,99729.84
2023-05-01T21:33:43.271Z,99762.97
2023-05-01T21:36:10.400Z,99790.69
2023-05-01T21:38:37.212Z,99684.00
2023-05-01T21:41:04.100Z,99722.31
2023-05-01T21:43:34.787Z,99604.81
2023-05-01T21:46:01.673Z,99797.31
2023-05-01T21:48:32.939Z,99705.91
2023-05-01T21:51:00.765Z,99727.63
2023-05-01T21:53:28.879Z,99618.53
2023-05-01T21:55:55.634Z,99542.25
2023-05-01T21:58:22.258Z,99712.38
2023-05-01T22:00:49.196Z,99809.38
2023-05-01T22:03:18.092Z,99709.09
2023-05-01T22:05:45.541Z,99729.97
2023-05-01T22:08:12.368Z,99812.50
2023-05-01T22:10:41.083Z,99749.06
2023-05-01T22:13:07.843Z,99780.50
2023-05-01T22:15:34.677Z,99701.25
2023-05-01T22:18:01.567Z,99756.13
2023-05-01T22:20:28.442Z,99841.16
2023-05-01T22:22:55.373Z,99838.22
2023-05-01T22:25:22.345Z,99800.00
2023-05-01T22:27:49.013Z,99854.66
2023-05-01T22:30:16.169Z,99754.63
2023-05-01T22:32:42.897Z,99662.00
2023-05-01T22:35:09.836Z,99740.53
2023-05-01T22:37:36.554Z,99767.53
2023-05-01T22:40:03.753Z,99850.72
2023-05-01T22:42:30.738Z,99761.91
2023-05-01T22:44:57.570Z,99875.09
2023-05-01T22:47:24.447Z,99827.03
2023-05-01T22:49:51.425Z,99734.31
2023-05-01T22:52:18.263Z,99593.34
2023-05-01T22:54:45.053Z,99822.53
2023-05-01T22:57:12.113Z,99817.06
2023-05-01T22:59:40.654Z,99804.75
2023-05-01T23:02:08.685Z,99878.69
2023-05-01T23:04:35.843Z,99878.28
2023-05-01T23:07:02.493Z,99742.56
2023-05-01T23:09:32.219Z,99623.34
2023-05-01T23:11:59.109Z,99563.13
2023-05-01T23:14:25.906Z,99860.41
2023-05-01T23:16:52.656Z,99831.28
2023-05-01T23:19:24.203Z,99845.84
2023-05-01T23:22:01.977Z,99542.00
2023-05-01T23:24:42.006Z,99919.47
2023-05-01T23:27:08.985Z,99878.84
2023-05-01T23:29:35.771Z,99811.31
2023-05-01T23:32:02.909Z,99855.38
2023-05-01T23:34:29.629Z,99856.50
2023-05-01T23:36:56.372Z,99867.25
2023-05-01T23:39:23.100Z,99831.66
2023-05-01T23:41:50.564Z,99729.97
2023-05-01T23:44:17.425Z,99929.81
2023-05-01T23:46:44.232Z,99962.56
2023-05-01T23:49:11.512Z,99843.31
2023-05-01T23:51:38.326Z,99894.91
2023-05-01T23:54:05.068Z,99771.53
2023-05-01T23:56:31.893Z,99932.94
2023-05-01T23:58:58.594Z,99874.44
